sensor_id;sensor_type;location;lat;lon;timestamp;temperature;humidity
18047;DHT22;9148;51.454;13.862;2022-07-18T00:01:58;13.70;72.00
18047;DHT22;9148;51.454;13.862;2022-07-18T00:04:25;13.70;72.30
18047;DHT22;9148;51.454;13.862;2022-07-18T00:06:52;13.60;72.50
18047;DHT22;9148;51.454;13.862;2022-07-18T00:09:18;13.60;73.00
18047;DHT22;9148;51.454;13.862;2022-07-18T00:11:45;13.50;73.80
18047;DHT22;9148;51.454;13.862;2022-07-18T00:14:11;13.40;74.30
18047;DHT22;9148;51.454;13.862;2022-07-18T00:16:37;13.30;74.70
18047;DHT22;9148;51.454;13.862;2022-07-18T00:19:03;13.20;75.10
18047;DHT22;9148;51.454;13.862;2022-07-18T00:21:29;13.10;75.60
18047;DHT22;9148;51.454;13.862;2022-07-18T00:23:55;13.00;76.00
18047;DHT22;9148;51.454;13.862;2022-07-18T00:26:20;13.00;76.20
18047;DHT22;9148;51.454;13.862;2022-07-18T00:28:46;13.00;76.50
18047;DHT22;9148;51.454;13.862;2022-07-18T00:31:12;13.00;77.00
18047;DHT22;9148;51.454;13.862;2022-07-18T00:33:38;13.00;77.00
18047;DHT22;9148;51.454;13.862;2022-07-18T00:36:04;12.90;77.20
18047;DHT22;9148;51.454;13.862;2022-07-18T00:38:29;13.00;77.60
18047;DHT22;9148;51.454;13.862;2022-07-18T00:40:55;12.90;77.80
18047;DHT22;9148;51.454;13.862;2022-07-18T00:43:21;12.90;78.10
18047;DHT22;9148;51.454;13.862;2022-07-18T00:45:47;13.00;78.50
18047;DHT22;9148;51.454;13.862;2022-07-18T00:48:15;13.00;78.90
18047;DHT22;9148;51.454;13.862;2022-07-18T00:50:42;13.00;79.20
18047;DHT22;9148;51.454;13.862;2022-07-18T00:53:08;13.00;79.60
18047;DHT22;9148;51.454;13.862;2022-07-18T00:55:37;12.90;80.00
18047;DHT22;9148;51.454;13.862;2022-07-18T00:58:04;12.90;80.50
18047;DHT22;9148;51.454;13.862;2022-07-18T01:00:30;12.80;81.00
18047;DHT22;9148;51.454;13.862;2022-07-18T01:03:14;12.80;81.60
18047;DHT22;9148;51.454;13.862;2022-07-18T01:05:40;12.80;82.30
18047;DHT22;9148;51.454;13.862;2022-07-18T01:08:06;12.70;82.90
18047;DHT22;9148;51.454;13.862;2022-07-18T01:10:32;12.70;83.40
18047;DHT22;9148;51.454;13.862;2022-07-18T01:12:57;12.60;84.10
18047;DHT22;9148;51.454;13.862;2022-07-18T01:15:23;12.60;85.00
18047;DHT22;9148;51.454;13.862;2022-07-18T01:17:49;12.60;85.60
18047;DHT22;9148;51.454;13.862;2022-07-18T01:20:14;12.50;86.30
18047;DHT22;9148;51.454;13.862;2022-07-18T01:22:41;12.40;87.00
18047;DHT22;9148;51.454;13.862;2022-07-18T01:25:08;12.40;87.80
18047;DHT22;9148;51.454;13.862;2022-07-18T01:27:35;12.30;88.60
18047;DHT22;9148;51.454;13.862;2022-07-18T01:30:01;12.30;89.40
18047;DHT22;9148;51.454;13.862;2022-07-18T01:32:28;12.30;90.00
18047;DHT22;9148;51.454;13.862;2022-07-18T01:34:54;12.20;90.30
18047;DHT22;9148;51.454;13.862;2022-07-18T01:37:20;12.20;90.50
18047;DHT22;9148;51.454;13.862;2022-07-18T01:39:45;12.20;90.70
18047;DHT22;9148;51.454;13.862;2022-07-18T01:42:13;12.10;90.90
18047;DHT22;9148;51.454;13.862;2022-07-18T01:44:39;12.10;91.20
18047;DHT22;9148;51.454;13.862;2022-07-18T01:47:07;12.10;91.50
18047;DHT22;9148;51.454;13.862;2022-07-18T01:49:34;12.00;91.80
18047;DHT22;9148;51.454;13.862;2022-07-18T01:52:00;12.00;92.00
18047;DHT22;9148;51.454;13.862;2022-07-18T01:54:28;11.90;92.20
18047;DHT22;9148;51.454;13.862;2022-07-18T01:56:55;11.90;92.30
18047;DHT22;9148;51.454;13.862;2022-07-18T01:59:22;11.80;92.40
18047;DHT22;9148;51.454;13.862;2022-07-18T02:01:49;11.80;92.80
18047;DHT22;9148;51.454;13.862;2022-07-18T02:04:15;11.70;93.00
18047;DHT22;9148;51.454;13.862;2022-07-18T02:06:41;11.70;93.20
18047;DHT22;9148;51.454;13.862;2022-07-18T02:09:08;11.70;93.40
18047;DHT22;9148;51.454;13.862;2022-07-18T02:11:35;11.70;93.60
18047;DHT22;9148;51.454;13.862;2022-07-18T02:14:02;11.60;93.80
18047;DHT22;9148;51.454;13.862;2022-07-18T02:16:28;11.60;94.00
18047;DHT22;9148;51.454;13.862;2022-07-18T02:18:54;11.60;94.20
18047;DHT22;9148;51.454;13.862;2022-07-18T02:21:21;11.50;94.40
18047;DHT22;9148;51.454;13.862;2022-07-18T02:23:47;11.50;94.60
18047;DHT22;9148;51.454;13.862;2022-07-18T02:26:13;11.50;94.80
18047;DHT22;9148;51.454;13.862;2022-07-18T02:28:39;11.50;94.90
18047;DHT22;9148;51.454;13.862;2022-07-18T02:31:05;11.40;94.90
18047;DHT22;9148;51.454;13.862;2022-07-18T02:33:32;11.40;95.10
18047;DHT22;9148;51.454;13.862;2022-07-18T02:35:58;11.40;95.30
18047;DHT22;9148;51.454;13.862;2022-07-18T02:38:23;11.40;95.50
18047;DHT22;9148;51.454;13.862;2022-07-18T02:40:49;11.30;95.70
18047;DHT22;9148;51.454;13.862;2022-07-18T02:43:15;11.30;95.90
18047;DHT22;9148;51.454;13.862;2022-07-18T02:45:40;11.30;96.20
18047;DHT22;9148;51.454;13.862;2022-07-18T02:48:06;11.30;96.50
18047;DHT22;9148;51.454;13.862;2022-07-18T02:50:32;11.20;96.60
18047;DHT22;9148;51.454;13.862;2022-07-18T02:52:57;11.20;96.80
18047;DHT22;9148;51.454;13.862;2022-07-18T02:55:23;11.20;97.00
18047;DHT22;9148;51.454;13.862;2022-07-18T02:57:49;11.10;97.10
18047;DHT22;9148;51.454;13.862;2022-07-18T03:00:17;11.10;97.40
18047;DHT22;9148;51.454;13.862;2022-07-18T03:02:44;11.10;97.60
18047;DHT22;9148;51.454;13.862;2022-07-18T03:05:10;11.00;97.80
18047;DHT22;9148;51.454;13.862;2022-07-18T03:07:37;11.00;98.00
18047;DHT22;9148;51.454;13.862;2022-07-18T03:10:03;11.00;98.20
18047;DHT22;9148;51.454;13.862;2022-07-18T03:12:30;10.90;98.30
18047;DHT22;9148;51.454;13.862;2022-07-18T03:14:56;10.90;98.50
18047;DHT22;9148;51.454;13.862;2022-07-18T03:17:21;10.90;98.60
18047;DHT22;9148;51.454;13.862;2022-07-18T03:19:47;10.90;98.70
18047;DHT22;9148;51.454;13.862;2022-07-18T03:22:13;10.80;98.90
18047;DHT22;9148;51.454;13.862;2022-07-18T03:24:39;10.80;99.10
18047;DHT22;9148;51.454;13.862;2022-07-18T03:27:04;10.80;99.20
18047;DHT22;9148;51.454;13.862;2022-07-18T03:29:30;10.80;99.30
18047;DHT22;9148;51.454;13.862;2022-07-18T03:31:56;10.50;99.40
18047;DHT22;9148;51.454;13.862;2022-07-18T03:34:21;10.70;99.50
18047;DHT22;9148;51.454;13.862;2022-07-18T03:36:47;10.70;99.60
18047;DHT22;9148;51.454;13.862;2022-07-18T03:39:13;10.70;99.70
18047;DHT22;9148;51.454;13.862;2022-07-18T03:41:39;10.70;99.70
18047;DHT22;9148;51.454;13.862;2022-07-18T03:44:05;10.70;99.80
18047;DHT22;9148;51.454;13.862;2022-07-18T03:46:32;10.70;99.90
18047;DHT22;9148;51.454;13.862;2022-07-18T03:48:58;10.70;99.90
18047;DHT22;9148;51.454;13.862;2022-07-18T03:51:24;10.80;99.90
18047;DHT22;9148;51.454;13.862;2022-07-18T03:53:50;10.80;99.90
18047;DHT22;9148;51.454;13.862;2022-07-18T03:56:16;10.80;99.90
18047;DHT22;9148;51.454;13.862;2022-07-18T03:58:42;10.80;99.90
18047;DHT22;9148;51.454;13.862;2022-07-18T04:01:08;10.80;99.90
18047;DHT22;9148;51.454;13.862;2022-07-18T04:03:35;10.90;99.90
18047;DHT22;9148;51.454;13.862;2022-07-18T04:06:00;10.90;99.90
18047;DHT22;9148;51.454;13.862;2022-07-18T04:08:26;10.90;99.90
18047;DHT22;9148;51.454;13.862;2022-07-18T04:10:52;11.00;99.90
18047;DHT22;9148;51.454;13.862;2022-07-18T04:13:18;11.00;99.90
18047;DHT22;9148;51.454;13.862;2022-07-18T04:15:43;11.10;99.90
18047;DHT22;9148;51.454;13.862;2022-07-18T04:18:09;11.10;99.90
18047;DHT22;9148;51.454;13.862;2022-07-18T04:20:36;11.10;99.90
18047;DHT22;9148;51.454;13.862;2022-07-18T04:23:03;11.20;99.90
18047;DHT22;9148;51.454;13.862;2022-07-18T04:25:36;11.30;99.90
18047;DHT22;9148;51.454;13.862;2022-07-18T04:28:09;11.30;99.90
18047;DHT22;9148;51.454;13.862;2022-07-18T04:30:36;11.40;99.90
18047;DHT22;9148;51.454;13.862;2022-07-18T04:33:04;11.50;99.90
18047;DHT22;9148;51.454;13.862;2022-07-18T04:35:32;11.60;99.90
18047;DHT22;9148;51.454;13.862;2022-07-18T04:38:01;11.70;99.90
18047;DHT22;9148;51.454;13.862;2022-07-18T04:40:28;11.80;99.90
18047;DHT22;9148;51.454;13.862;2022-07-18T04:42:54;12.00;99.90
18047;DHT22;9148;51.454;13.862;2022-07-18T04:45:20;12.00;99.90
18047;DHT22;9148;51.454;13.862;2022-07-18T04:47:49;12.20;99.90
18047;DHT22;9148;51.454;13.862;2022-07-18T04:50:15;12.30;99.90
18047;DHT22;9148;51.454;13.862;2022-07-18T04:52:44;12.50;99.80
18047;DHT22;9148;51.454;13.862;2022-07-18T04:55:12;12.60;99.50
18047;DHT22;9148;51.454;13.862;2022-07-18T04:57:38;12.80;99.20
18047;DHT22;9148;51.454;13.862;2022-07-18T05:00:10;13.00;98.70
18047;DHT22;9148;51.454;13.862;2022-07-18T05:02:45;13.20;98.30
18047;DHT22;9148;51.454;13.862;2022-07-18T05:05:15;13.40;97.80
18047;DHT22;9148;51.454;13.862;2022-07-18T05:07:42;13.60;97.40
18047;DHT22;9148;51.454;13.862;2022-07-18T05:10:11;13.80;97.10
18047;DHT22;9148;51.454;13.862;2022-07-18T05:12:40;13.90;96.60
18047;DHT22;9148;51.454;13.862;2022-07-18T05:15:09;14.10;96.30
18047;DHT22;9148;51.454;13.862;2022-07-18T05:17:37;14.30;95.90
18047;DHT22;9148;51.454;13.862;2022-07-18T05:20:04;14.50;95.60
18047;DHT22;9148;51.454;13.862;2022-07-18T05:22:35;14.80;95.10
18047;DHT22;9148;51.454;13.862;2022-07-18T05:25:03;15.00;94.60
18047;DHT22;9148;51.454;13.862;2022-07-18T05:27:30;15.20;94.10
18047;DHT22;9148;51.454;13.862;2022-07-18T05:29:56;15.40;93.70
18047;DHT22;9148;51.454;13.862;2022-07-18T05:32:24;15.60;93.30
18047;DHT22;9148;51.454;13.862;2022-07-18T05:34:51;15.90;92.80
18047;DHT22;9148;51.454;13.862;2022-07-18T05:37:16;16.10;92.30
18047;DHT22;9148;51.454;13.862;2022-07-18T05:39:42;16.30;91.80
18047;DHT22;9148;51.454;13.862;2022-07-18T05:42:08;16.60;91.00
18047;DHT22;9148;51.454;13.862;2022-07-18T05:44:33;16.80;90.50
18047;DHT22;9148;51.454;13.862;2022-07-18T05:46:59;17.10;89.70
18047;DHT22;9148;51.454;13.862;2022-07-18T05:49:25;17.30;87.60
18047;DHT22;9148;51.454;13.862;2022-07-18T05:51:50;17.50;85.90
18047;DHT22;9148;51.454;13.862;2022-07-18T05:54:16;17.70;84.90
18047;DHT22;9148;51.454;13.862;2022-07-18T05:56:48;18.00;83.10
18047;DHT22;9148;51.454;13.862;2022-07-18T05:59:16;18.20;81.70
18047;DHT22;9148;51.454;13.862;2022-07-18T06:01:42;18.50;80.80
18047;DHT22;9148;51.454;13.862;2022-07-18T06:04:09;18.70;79.50
18047;DHT22;9148;51.454;13.862;2022-07-18T06:06:35;18.90;77.70
18047;DHT22;9148;51.454;13.862;2022-07-18T06:09:00;19.10;76.80
18047;DHT22;9148;51.454;13.862;2022-07-18T06:11:27;19.30;75.40
18047;DHT22;9148;51.454;13.862;2022-07-18T06:13:52;19.50;74.30
18047;DHT22;9148;51.454;13.862;2022-07-18T06:16:18;19.70;72.80
18047;DHT22;9148;51.454;13.862;2022-07-18T06:18:44;19.90;72.00
18047;DHT22;9148;51.454;13.862;2022-07-18T06:21:09;20.10;71.40
18047;DHT22;9148;51.454;13.862;2022-07-18T06:23:35;20.40;69.90
18047;DHT22;9148;51.454;13.862;2022-07-18T06:26:02;20.60;68.60
18047;DHT22;9148;51.454;13.862;2022-07-18T06:28:27;20.80;67.70
18047;DHT22;9148;51.454;13.862;2022-07-18T06:30:57;21.00;67.00
18047;DHT22;9148;51.454;13.862;2022-07-18T06:33:22;21.30;66.20
18047;DHT22;9148;51.454;13.862;2022-07-18T06:35:49;21.60;66.00
18047;DHT22;9148;51.454;13.862;2022-07-18T06:38:15;21.90;65.70
18047;DHT22;9148;51.454;13.862;2022-07-18T06:40:42;22.10;65.00
18047;DHT22;9148;51.454;13.862;2022-07-18T06:43:08;22.40;64.00
18047;DHT22;9148;51.454;13.862;2022-07-18T06:45:34;22.60;63.20
18047;DHT22;9148;51.454;13.862;2022-07-18T06:48:00;22.90;62.40
18047;DHT22;9148;51.454;13.862;2022-07-18T06:50:26;23.20;61.00
18047;DHT22;9148;51.454;13.862;2022-07-18T06:52:52;23.40;59.40
18047;DHT22;9148;51.454;13.862;2022-07-18T06:55:17;23.60;58.60
18047;DHT22;9148;51.454;13.862;2022-07-18T06:57:44;23.80;57.60
18047;DHT22;9148;51.454;13.862;2022-07-18T07:00:12;23.90;57.20
18047;DHT22;9148;51.454;13.862;2022-07-18T07:02:47;24.10;56.60
18047;DHT22;9148;51.454;13.862;2022-07-18T07:05:15;24.30;55.90
18047;DHT22;9148;51.454;13.862;2022-07-18T07:07:43;24.50;56.00
18047;DHT22;9148;51.454;13.862;2022-07-18T07:10:09;24.70;54.70
18047;DHT22;9148;51.454;13.862;2022-07-18T07:12:40;24.90;54.00
18047;DHT22;9148;51.454;13.862;2022-07-18T07:15:07;25.20;53.40
18047;DHT22;9148;51.454;13.862;2022-07-18T07:17:33;25.40;52.90
18047;DHT22;9148;51.454;13.862;2022-07-18T07:19:59;25.70;52.30
18047;DHT22;9148;51.454;13.862;2022-07-18T07:22:25;25.90;51.40
18047;DHT22;9148;51.454;13.862;2022-07-18T07:24:51;26.20;50.70
18047;DHT22;9148;51.454;13.862;2022-07-18T07:27:16;26.40;50.20
18047;DHT22;9148;51.454;13.862;2022-07-18T07:29:42;26.70;49.50
18047;DHT22;9148;51.454;13.862;2022-07-18T07:32:08;27.00;49.10
18047;DHT22;9148;51.454;13.862;2022-07-18T07:34:33;27.20;48.30
18047;DHT22;9148;51.454;13.862;2022-07-18T07:36:59;27.40;48.00
18047;DHT22;9148;51.454;13.862;2022-07-18T07:39:25;27.60;47.50
18047;DHT22;9148;51.454;13.862;2022-07-18T07:41:51;27.80;46.70
18047;DHT22;9148;51.454;13.862;2022-07-18T07:44:16;27.90;46.30
18047;DHT22;9148;51.454;13.862;2022-07-18T07:46:42;28.20;45.70
18047;DHT22;9148;51.454;13.862;2022-07-18T07:49:08;28.30;45.10
18047;DHT22;9148;51.454;13.862;2022-07-18T07:51:33;28.50;44.20
18047;DHT22;9148;51.454;13.862;2022-07-18T07:53:59;28.60;43.30
18047;DHT22;9148;51.454;13.862;2022-07-18T07:56:25;28.80;43.00
18047;DHT22;9148;51.454;13.862;2022-07-18T07:58:50;28.90;42.60
18047;DHT22;9148;51.454;13.862;2022-07-18T08:01:16;29.10;41.80
18047;DHT22;9148;51.454;13.862;2022-07-18T08:03:45;29.10;41.30
18047;DHT22;9148;51.454;13.862;2022-07-18T08:06:13;29.20;41.10
18047;DHT22;9148;51.454;13.862;2022-07-18T08:08:39;29.30;40.60
18047;DHT22;9148;51.454;13.862;2022-07-18T08:11:05;29.30;40.40
18047;DHT22;9148;51.454;13.862;2022-07-18T08:13:30;29.40;40.30
18047;DHT22;9148;51.454;13.862;2022-07-18T08:15:56;29.60;39.90
18047;DHT22;9148;51.454;13.862;2022-07-18T08:18:22;29.60;39.80
18047;DHT22;9148;51.454;13.862;2022-07-18T08:20:47;29.70;39.50
18047;DHT22;9148;51.454;13.862;2022-07-18T08:23:13;29.70;39.30
18047;DHT22;9148;51.454;13.862;2022-07-18T08:25:40;29.80;39.00
18047;DHT22;9148;51.454;13.862;2022-07-18T08:28:07;29.90;38.90
18047;DHT22;9148;51.454;13.862;2022-07-18T08:30:34;30.00;38.70
18047;DHT22;9148;51.454;13.862;2022-07-18T08:33:00;30.20;38.30
18047;DHT22;9148;51.454;13.862;2022-07-18T08:35:27;30.20;37.10
18047;DHT22;9148;51.454;13.862;2022-07-18T08:37:53;30.30;37.40
18047;DHT22;9148;51.454;13.862;2022-07-18T08:40:19;30.40;37.10
18047;DHT22;9148;51.454;13.862;2022-07-18T08:42:46;30.50;36.60
18047;DHT22;9148;51.454;13.862;2022-07-18T08:45:20;30.60;36.20
18047;DHT22;9148;51.454;13.862;2022-07-18T08:47:47;30.70;36.00
18047;DHT22;9148;51.454;13.862;2022-07-18T08:50:13;30.90;35.70
18047;DHT22;9148;51.454;13.862;2022-07-18T08:52:39;30.90;35.20
18047;DHT22;9148;51.454;13.862;2022-07-18T08:55:07;31.10;35.20
18047;DHT22;9148;51.454;13.862;2022-07-18T08:57:33;31.20;34.90
18047;DHT22;9148;51.454;13.862;2022-07-18T08:59:59;31.30;34.80
18047;DHT22;9148;51.454;13.862;2022-07-18T09:02:27;31.30;33.90
18047;DHT22;9148;51.454;13.862;2022-07-18T09:04:54;31.40;33.70
18047;DHT22;9148;51.454;13.862;2022-07-18T09:07:25;31.40;34.00
18047;DHT22;9148;51.454;13.862;2022-07-18T09:09:57;31.40;33.80
18047;DHT22;9148;51.454;13.862;2022-07-18T09:12:29;31.50;33.70
18047;DHT22;9148;51.454;13.862;2022-07-18T09:15:04;31.50;33.60
18047;DHT22;9148;51.454;13.862;2022-07-18T09:17:35;31.60;33.00
18047;DHT22;9148;51.454;13.862;2022-07-18T09:20:08;31.70;33.00
18047;DHT22;9148;51.454;13.862;2022-07-18T09:22:42;31.70;32.80
18047;DHT22;9148;51.454;13.862;2022-07-18T09:25:16;31.80;32.80
18047;DHT22;9148;51.454;13.862;2022-07-18T09:27:50;31.80;31.90
18047;DHT22;9148;51.454;13.862;2022-07-18T09:35:36;31.70;32.40
18047;DHT22;9148;51.454;13.862;2022-07-18T09:38:08;31.70;31.70
18047;DHT22;9148;51.454;13.862;2022-07-18T09:40:39;31.70;31.80
18047;DHT22;9148;51.454;13.862;2022-07-18T09:43:11;31.80;31.80
18047;DHT22;9148;51.454;13.862;2022-07-18T09:45:47;31.90;31.60
18047;DHT22;9148;51.454;13.862;2022-07-18T09:48:17;31.90;30.90
18047;DHT22;9148;51.454;13.862;2022-07-18T09:51:00;31.80;30.40
18047;DHT22;9148;51.454;13.862;2022-07-18T09:53:40;31.80;30.60
18047;DHT22;9148;51.454;13.862;2022-07-18T09:56:13;31.70;31.10
18047;DHT22;9148;51.454;13.862;2022-07-18T09:58:53;31.90;31.30
18047;DHT22;9148;51.454;13.862;2022-07-18T10:01:20;32.00;31.10
18047;DHT22;9148;51.454;13.862;2022-07-18T10:03:49;32.00;30.80
18047;DHT22;9148;51.454;13.862;2022-07-18T10:06:16;32.10;31.00
18047;DHT22;9148;51.454;13.862;2022-07-18T10:08:42;32.00;30.70
18047;DHT22;9148;51.454;13.862;2022-07-18T10:11:08;32.00;31.00
18047;DHT22;9148;51.454;13.862;2022-07-18T10:13:36;32.10;31.00
18047;DHT22;9148;51.454;13.862;2022-07-18T10:16:03;32.30;30.60
18047;DHT22;9148;51.454;13.862;2022-07-18T10:18:33;32.40;30.40
18047;DHT22;9148;51.454;13.862;2022-07-18T10:21:06;32.70;29.90
18047;DHT22;9148;51.454;13.862;2022-07-18T10:23:42;32.80;30.00
18047;DHT22;9148;51.454;13.862;2022-07-18T10:26:21;33.00;29.90
18047;DHT22;9148;51.454;13.862;2022-07-18T10:31:40;33.20;29.40
18047;DHT22;9148;51.454;13.862;2022-07-18T10:34:32;33.30;29.00
18047;DHT22;9148;51.454;13.862;2022-07-18T10:39:42;33.40;28.80
18047;DHT22;9148;51.454;13.862;2022-07-18T10:44:35;33.60;28.50
18047;DHT22;9148;51.454;13.862;2022-07-18T11:00:09;34.70;27.60
18047;DHT22;9148;51.454;13.862;2022-07-18T11:02:47;34.80;27.80
18047;DHT22;9148;51.454;13.862;2022-07-18T11:21:28;35.60;27.40
18047;DHT22;9148;51.454;13.862;2022-07-18T11:24:07;35.60;27.30
18047;DHT22;9148;51.454;13.862;2022-07-18T11:26:36;35.60;27.60
18047;DHT22;9148;51.454;13.862;2022-07-18T11:29:11;35.70;27.30
18047;DHT22;9148;51.454;13.862;2022-07-18T11:31:50;35.80;27.20
18047;DHT22;9148;51.454;13.862;2022-07-18T11:34:24;35.90;27.30
18047;DHT22;9148;51.454;13.862;2022-07-18T11:36:51;36.00;27.70
18047;DHT22;9148;51.454;13.862;2022-07-18T11:39:30;36.20;27.20
18047;DHT22;9148;51.454;13.862;2022-07-18T11:41:57;36.30;27.10
18047;DHT22;9148;51.454;13.862;2022-07-18T11:44:23;36.30;27.10
18047;DHT22;9148;51.454;13.862;2022-07-18T11:47:21;36.30;27.10
18047;DHT22;9148;51.454;13.862;2022-07-18T11:49:54;36.40;27.00
18047;DHT22;9148;51.454;13.862;2022-07-18T11:52:21;36.50;27.00
18047;DHT22;9148;51.454;13.862;2022-07-18T11:54:47;36.60;26.80
18047;DHT22;9148;51.454;13.862;2022-07-18T11:57:13;36.60;26.50
18047;DHT22;9148;51.454;13.862;2022-07-18T11:59:51;36.60;26.20
18047;DHT22;9148;51.454;13.862;2022-07-18T12:02:17;36.50;26.60
18047;DHT22;9148;51.454;13.862;2022-07-18T12:04:43;36.60;26.70
18047;DHT22;9148;51.454;13.862;2022-07-18T12:07:23;36.60;26.60
18047;DHT22;9148;51.454;13.862;2022-07-18T12:09:51;36.70;26.50
18047;DHT22;9148;51.454;13.862;2022-07-18T12:12:19;36.80;26.60
18047;DHT22;9148;51.454;13.862;2022-07-18T12:15:00;36.70;26.50
18047;DHT22;9148;51.454;13.862;2022-07-18T12:17:28;36.80;26.50
18047;DHT22;9148;51.454;13.862;2022-07-18T12:20:16;36.90;26.50
18047;DHT22;9148;51.454;13.862;2022-07-18T12:25:55;37.00;25.60
18047;DHT22;9148;51.454;13.862;2022-07-18T12:28:25;37.00;25.80
18047;DHT22;9148;51.454;13.862;2022-07-18T12:30:51;36.90;25.80
18047;DHT22;9148;51.454;13.862;2022-07-18T12:33:17;36.90;26.00
18047;DHT22;9148;51.454;13.862;2022-07-18T12:35:43;36.70;26.00
18047;DHT22;9148;51.454;13.862;2022-07-18T12:38:13;36.70;26.20
18047;DHT22;9148;51.454;13.862;2022-07-18T12:43:13;36.60;26.30
18047;DHT22;9148;51.454;13.862;2022-07-18T12:45:41;36.50;26.40
18047;DHT22;9148;51.454;13.862;2022-07-18T12:48:10;36.40;26.50
18047;DHT22;9148;51.454;13.862;2022-07-18T12:50:38;36.30;26.20
18047;DHT22;9148;51.454;13.862;2022-07-18T12:53:04;36.20;26.00
18047;DHT22;9148;51.454;13.862;2022-07-18T12:55:30;36.00;26.40
18047;DHT22;9148;51.454;13.862;2022-07-18T12:57:56;35.80;26.10
18047;DHT22;9148;51.454;13.862;2022-07-18T13:00:22;35.40;26.40
18047;DHT22;9148;51.454;13.862;2022-07-18T13:02:47;35.30;26.70
18047;DHT22;9148;51.454;13.862;2022-07-18T13:05:13;35.20;26.80
18047;DHT22;9148;51.454;13.862;2022-07-18T13:07:40;35.20;26.80
18047;DHT22;9148;51.454;13.862;2022-07-18T13:10:07;35.10;26.90
18047;DHT22;9148;51.454;13.862;2022-07-18T13:12:33;34.90;26.90
18047;DHT22;9148;51.454;13.862;2022-07-18T13:14:58;34.60;26.70
18047;DHT22;9148;51.454;13.862;2022-07-18T13:17:24;34.40;26.80
18047;DHT22;9148;51.454;13.862;2022-07-18T13:19:50;34.10;27.10
18047;DHT22;9148;51.454;13.862;2022-07-18T13:22:16;34.10;27.30
18047;DHT22;9148;51.454;13.862;2022-07-18T13:24:42;34.10;27.60
18047;DHT22;9148;51.454;13.862;2022-07-18T13:27:08;34.10;27.70
18047;DHT22;9148;51.454;13.862;2022-07-18T13:29:33;34.20;27.90
18047;DHT22;9148;51.454;13.862;2022-07-18T13:31:59;34.40;27.80
18047;DHT22;9148;51.454;13.862;2022-07-18T13:34:26;34.50;27.80
18047;DHT22;9148;51.454;13.862;2022-07-18T13:36:52;34.60;27.70
18047;DHT22;9148;51.454;13.862;2022-07-18T13:39:19;34.60;27.50
18047;DHT22;9148;51.454;13.862;2022-07-18T13:41:46;34.60;27.50
18047;DHT22;9148;51.454;13.862;2022-07-18T13:44:12;34.60;27.70
18047;DHT22;9148;51.454;13.862;2022-07-18T13:46:38;34.70;27.80
18047;DHT22;9148;51.454;13.862;2022-07-18T13:49:09;34.90;27.60
18047;DHT22;9148;51.454;13.862;2022-07-18T13:51:36;35.10;28.10
18047;DHT22;9148;51.454;13.862;2022-07-18T13:54:06;35.20;27.60
18047;DHT22;9148;51.454;13.862;2022-07-18T13:56:32;35.50;27.30
18047;DHT22;9148;51.454;13.862;2022-07-18T13:58:58;35.50;27.30
18047;DHT22;9148;51.454;13.862;2022-07-18T14:01:24;35.60;27.30
18047;DHT22;9148;51.454;13.862;2022-07-18T14:03:50;35.70;27.40
18047;DHT22;9148;51.454;13.862;2022-07-18T14:06:16;35.80;27.40
18047;DHT22;9148;51.454;13.862;2022-07-18T14:08:41;36.00;27.30
18047;DHT22;9148;51.454;13.862;2022-07-18T14:11:07;36.10;27.20
18047;DHT22;9148;51.454;13.862;2022-07-18T14:13:33;36.20;27.00
18047;DHT22;9148;51.454;13.862;2022-07-18T14:15:59;36.20;27.00
18047;DHT22;9148;51.454;13.862;2022-07-18T14:18:25;36.20;27.00
18047;DHT22;9148;51.454;13.862;2022-07-18T14:20:50;36.20;27.00
18047;DHT22;9148;51.454;13.862;2022-07-18T14:23:16;36.20;27.00
18047;DHT22;9148;51.454;13.862;2022-07-18T14:25:42;36.10;27.00
18047;DHT22;9148;51.454;13.862;2022-07-18T14:28:07;36.00;27.10
18047;DHT22;9148;51.454;13.862;2022-07-18T14:30:33;35.80;27.20
18047;DHT22;9148;51.454;13.862;2022-07-18T14:32:59;35.60;27.30
18047;DHT22;9148;51.454;13.862;2022-07-18T14:35:25;35.50;27.50
18047;DHT22;9148;51.454;13.862;2022-07-18T14:37:51;35.30;27.60
18047;DHT22;9148;51.454;13.862;2022-07-18T14:40:17;35.20;27.40
18047;DHT22;9148;51.454;13.862;2022-07-18T14:42:42;35.00;27.50
18047;DHT22;9148;51.454;13.862;2022-07-18T14:45:09;34.70;27.60
18047;DHT22;9148;51.454;13.862;2022-07-18T14:47:35;34.40;27.60
18047;DHT22;9148;51.454;13.862;2022-07-18T14:50:03;34.20;27.70
18047;DHT22;9148;51.454;13.862;2022-07-18T14:52:30;33.80;27.90
18047;DHT22;9148;51.454;13.862;2022-07-18T14:54:55;33.60;28.10
18047;DHT22;9148;51.454;13.862;2022-07-18T14:57:21;33.50;28.20
18047;DHT22;9148;51.454;13.862;2022-07-18T14:59:47;33.30;28.00
18047;DHT22;9148;51.454;13.862;2022-07-18T15:02:13;33.00;28.30
18047;DHT22;9148;51.454;13.862;2022-07-18T15:04:40;32.90;28.70
18047;DHT22;9148;51.454;13.862;2022-07-18T15:07:06;32.80;29.00
18047;DHT22;9148;51.454;13.862;2022-07-18T15:09:32;32.70;29.10
18047;DHT22;9148;51.454;13.862;2022-07-18T15:11:58;32.70;29.30
18047;DHT22;9148;51.454;13.862;2022-07-18T15:14:23;32.70;29.50
18047;DHT22;9148;51.454;13.862;2022-07-18T15:16:49;32.70;29.40
18047;DHT22;9148;51.454;13.862;2022-07-18T15:19:15;32.60;29.40
18047;DHT22;9148;51.454;13.862;2022-07-18T15:21:40;32.60;29.60
18047;DHT22;9148;51.454;13.862;2022-07-18T15:24:06;32.50;29.70
18047;DHT22;9148;51.454;13.862;2022-07-18T15:26:33;32.50;29.70
18047;DHT22;9148;51.454;13.862;2022-07-18T15:29:00;32.50;29.50
18047;DHT22;9148;51.454;13.862;2022-07-18T15:31:26;32.50;29.70
18047;DHT22;9148;51.454;13.862;2022-07-18T15:33:52;32.50;29.80
18047;DHT22;9148;51.454;13.862;2022-07-18T15:36:17;32.40;29.80
18047;DHT22;9148;51.454;13.862;2022-07-18T15:38:43;32.50;29.80
18047;DHT22;9148;51.454;13.862;2022-07-18T15:41:10;32.40;29.80
18047;DHT22;9148;51.454;13.862;2022-07-18T15:43:37;32.50;29.90
18047;DHT22;9148;51.454;13.862;2022-07-18T15:46:03;32.50;29.80
18047;DHT22;9148;51.454;13.862;2022-07-18T15:48:29;32.60;29.70
18047;DHT22;9148;51.454;13.862;2022-07-18T15:50:55;32.70;29.80
18047;DHT22;9148;51.454;13.862;2022-07-18T15:53:21;32.70;29.70
18047;DHT22;9148;51.454;13.862;2022-07-18T15:55:46;32.60;29.60
18047;DHT22;9148;51.454;13.862;2022-07-18T15:58:12;32.70;29.60
18047;DHT22;9148;51.454;13.862;2022-07-18T16:00:38;32.70;29.60
18047;DHT22;9148;51.454;13.862;2022-07-18T16:03:03;32.60;29.80
18047;DHT22;9148;51.454;13.862;2022-07-18T16:05:29;32.50;30.00
18047;DHT22;9148;51.454;13.862;2022-07-18T16:07:55;32.40;30.00
18047;DHT22;9148;51.454;13.862;2022-07-18T16:10:20;32.30;30.10
18047;DHT22;9148;51.454;13.862;2022-07-18T16:12:46;32.20;30.00
18047;DHT22;9148;51.454;13.862;2022-07-18T16:15:12;32.10;30.10
18047;DHT22;9148;51.454;13.862;2022-07-18T16:17:38;32.00;30.10
18047;DHT22;9148;51.454;13.862;2022-07-18T16:20:06;32.00;30.20